パース の空港の天気 - METARとTAF

パース空港 ( YPPH / PER ) - オーストラリア 西オーストラリア州パース
飛行場実況気象(Metar)
観測時間07/23 02:00 AWST (07/22 18:00 UTC)
風向・風速西 6m/s
視程10km以上
天気現象
少しの雲 雲底高度 1070m
気温15℃
湿度63%
気圧1010hPa
METARYPPH 221800Z 27011KT 9999 FEW035 15/08 Q1010 NOSIG
過去の天気等 Google飛行場航空写真 Wunderground天気予報

過去48時間のMETAR

飛行場予報(TAF)
発表時間: 7/23 01:04 AWST (7/22 17:04 UTC)
予報対象時間: 23日2時 AWST ~ 24日8時 AWST
風向・風速西 7m/s 瞬間風速 12m/s
視程10km以上
天気現象弱いしゅう雨
全天の8割程度の雲 雲底高度 1220m
23日18時 AWST から
風向・風速西北西 4m/s
視程10km以上
天気現象弱いしゅう雨
全天の4割程度の雲 雲底高度 760m
全天の8割程度の雲 雲底高度 1370m
TAF YPPH 221704Z 2218/2324 26014G24KT 9999 -SHRA BKN040
FM231000 29008KT 9999 -SHRA SCT025 BKN045 INTER 2310/2320 5000 SHRA SCT015